DAL1714 KLAX-KSEA
Flight info
| Callsign | DAL1714 |
|---|---|
| Flight time | N/A |
| Altitude | 36000 |
| Route | LADYJ4 CSTRO SHIMR LKV HAWKZ8 |
| Aircraft | A320/M-SDE3FGHIRWY/LB1 |
Departure
| Time | 2026-04-24 19:15 |
|---|---|
| Airport | Los Angeles International Airport (KLAX) |
Arrival
| Time | N/A |
|---|---|
| Airport | Seattle–Tacoma International Airport (KSEA) |
| Time | Latitude | Longitude | Altitude | Speed | Heading |
|---|---|---|---|---|---|
| 2026-04-24 18:54 | 33.94653 | -118.40478 | 93 ft | 0 kts | 96° |
| 2026-04-24 19:05 | 33.94655 | -118.40501 | 98 ft | 3 kts | 89° |
| 2026-04-24 19:05 | 33.94652 | -118.40528 | 93 ft | 3 kts | 66° |
| 2026-04-24 19:05 | 33.94642 | -118.40546 | 93 ft | 3 kts | 5° |
| 2026-04-24 19:06 | 33.94636 | -118.40546 | 93 ft | 0 kts | 353° |
| 2026-04-24 19:09 | 33.94643 | -118.40547 | 92 ft | 2 kts | 352° |
| 2026-04-24 19:09 | 33.94653 | -118.40549 | 95 ft | 1 kts | 352° |
| 2026-04-24 19:09 | 33.94666 | -118.40551 | 94 ft | 2 kts | 352° |
| 2026-04-24 19:09 | 33.94672 | -118.40552 | 94 ft | 1 kts | 352° |
| 2026-04-24 19:10 | 33.94722 | -118.40565 | 94 ft | 9 kts | 338° |
| 2026-04-24 19:10 | 33.94777 | -118.40586 | 93 ft | 8 kts | 347° |
| 2026-04-24 19:10 | 33.94829 | -118.40601 | 95 ft | 6 kts | 347° |
| 2026-04-24 19:10 | 33.94859 | -118.40589 | 94 ft | 4 kts | 52° |
| 2026-04-24 19:11 | 33.94872 | -118.40519 | 94 ft | 10 kts | 82° |
| 2026-04-24 19:11 | 33.94879 | -118.40440 | 94 ft | 9 kts | 83° |
| 2026-04-24 19:11 | 33.94891 | -118.40328 | 95 ft | 15 kts | 84° |
| 2026-04-24 19:11 | 33.94904 | -118.40200 | 96 ft | 16 kts | 83° |
| 2026-04-24 19:12 | 33.94917 | -118.40063 | 93 ft | 17 kts | 83° |
| 2026-04-24 19:12 | 33.94935 | -118.39941 | 93 ft | 9 kts | 60° |
| 2026-04-24 19:12 | 33.94979 | -118.39911 | 94 ft | 0 kts | 351° |
| 2026-04-24 19:12 | 33.94981 | -118.39911 | 94 ft | 0 kts | 351° |
| 2026-04-24 19:13 | 33.95032 | -118.39937 | 94 ft | 7 kts | 309° |
| 2026-04-24 19:13 | 33.95039 | -118.39984 | 95 ft | 5 kts | 263° |
| 2026-04-24 19:13 | 33.95039 | -118.39986 | 94 ft | 0 kts | 261° |
| 2026-04-24 19:14 | 33.95036 | -118.40013 | 93 ft | 17 kts | 263° |
| 2026-04-24 19:14 | 33.94991 | -118.40454 | 97 ft | 94 kts | 263° |
| 2026-04-24 19:14 | 33.94879 | -118.41537 | 97 ft | 163 kts | 263° |
| 2026-04-24 19:15 | 33.94719 | -118.42988 | 658 ft | 174 kts | 259° |
| 2026-04-24 19:15 | 33.94563 | -118.44463 | 1539 ft | 180 kts | 259° |
| 2026-04-24 19:15 | 33.94418 | -118.45997 | 2163 ft | 191 kts | 260° |
| 2026-04-24 19:15 | 33.94291 | -118.47688 | 2385 ft | 215 kts | 263° |
| 2026-04-24 19:16 | 33.94140 | -118.51704 | 3100 ft | 260 kts | 264° |
| 2026-04-24 19:16 | 33.94003 | -118.53893 | 3901 ft | 263 kts | 264° |
| 2026-04-24 19:16 | 33.93839 | -118.56086 | 4850 ft | 262 kts | 264° |
| 2026-04-24 19:17 | 33.93665 | -118.58277 | 5674 ft | 265 kts | 264° |
| 2026-04-24 19:17 | 33.93585 | -118.60507 | 6438 ft | 269 kts | 276° |
| 2026-04-24 19:17 | 33.94079 | -118.62662 | 7287 ft | 269 kts | 295° |
| 2026-04-24 19:17 | 33.95172 | -118.64518 | 8005 ft | 277 kts | 315° |
| 2026-04-24 19:18 | 33.96748 | -118.65884 | 8756 ft | 282 kts | 326° |
| 2026-04-24 19:18 | 33.98489 | -118.67009 | 9506 ft | 288 kts | 337° |
| 2026-04-24 19:18 | 34.00460 | -118.67573 | 10194 ft | 296 kts | 352° |
| 2026-04-24 19:18 | 34.02538 | -118.67538 | 10860 ft | 302 kts | 0° |
| 2026-04-24 19:19 | 34.04647 | -118.67391 | 11527 ft | 306 kts | 359° |
| 2026-04-24 19:19 | 34.06787 | -118.67253 | 12160 ft | 313 kts | 359° |
| 2026-04-24 19:19 | 34.09036 | -118.66906 | 12315 ft | 339 kts | 7° |
| 2026-04-24 19:19 | 34.11428 | -118.66354 | 12455 ft | 361 kts | 7° |
| 2026-04-24 19:20 | 34.13964 | -118.65759 | 12633 ft | 380 kts | 7° |
| 2026-04-24 19:20 | 34.16587 | -118.65132 | 13123 ft | 388 kts | 7° |
| 2026-04-24 19:20 | 34.19247 | -118.64488 | 13733 ft | 392 kts | 7° |
| 2026-04-24 19:20 | 34.21937 | -118.63854 | 14266 ft | 395 kts | 4° |
| 2026-04-24 19:21 | 34.24670 | -118.63606 | 14800 ft | 393 kts | 354° |
| 2026-04-24 19:21 | 34.27380 | -118.63910 | 15348 ft | 391 kts | 344° |
| 2026-04-24 19:21 | 34.30060 | -118.64531 | 15910 ft | 393 kts | 343° |
| 2026-04-24 19:21 | 34.32758 | -118.65156 | 16469 ft | 396 kts | 343° |
| 2026-04-24 19:22 | 34.34556 | -118.65570 | 16834 ft | 398 kts | 343° |
| 2026-04-24 19:22 | 34.38224 | -118.66411 | 17469 ft | 404 kts | 343° |
| 2026-04-24 19:22 | 34.40996 | -118.67047 | 18052 ft | 406 kts | 343° |
| 2026-04-24 19:22 | 34.43790 | -118.67682 | 18527 ft | 411 kts | 343° |
| 2026-04-24 19:23 | 34.46609 | -118.68272 | 19058 ft | 412 kts | 343° |
| 2026-04-24 19:23 | 34.49446 | -118.68820 | 19566 ft | 414 kts | 344° |
| 2026-04-24 19:23 | 34.52296 | -118.69349 | 20060 ft | 416 kts | 343° |
| 2026-04-24 19:23 | 34.55161 | -118.69878 | 20559 ft | 417 kts | 343° |
| 2026-04-24 19:24 | 34.58037 | -118.70417 | 20995 ft | 419 kts | 343° |
| 2026-04-24 19:24 | 34.60921 | -118.70967 | 21490 ft | 420 kts | 342° |
| 2026-04-24 19:24 | 34.63817 | -118.71532 | 21926 ft | 423 kts | 342° |
| 2026-04-24 19:24 | 34.66723 | -118.72104 | 22354 ft | 424 kts | 342° |
| 2026-04-24 19:25 | 34.69628 | -118.72717 | 22753 ft | 422 kts | 338° |
| 2026-04-24 19:25 | 34.72413 | -118.73736 | 23130 ft | 415 kts | 329° |
| 2026-04-24 19:25 | 34.74964 | -118.75190 | 23496 ft | 408 kts | 322° |
| 2026-04-24 19:25 | 34.77433 | -118.76893 | 23842 ft | 409 kts | 322° |
| 2026-04-24 19:26 | 34.79913 | -118.78598 | 24168 ft | 410 kts | 322° |
| 2026-04-24 19:26 | 34.82403 | -118.80307 | 24467 ft | 412 kts | 322° |
| 2026-04-24 19:26 | 34.84904 | -118.82027 | 24740 ft | 414 kts | 321° |
| 2026-04-24 19:26 | 34.87418 | -118.83755 | 24997 ft | 416 kts | 321° |
| 2026-04-24 19:27 | 34.89944 | -118.85490 | 25236 ft | 418 kts | 322° |
| 2026-04-24 19:27 | 34.92486 | -118.87237 | 25483 ft | 421 kts | 321° |
| 2026-04-24 19:27 | 34.95036 | -118.88991 | 25805 ft | 421 kts | 321° |
| 2026-04-24 19:27 | 34.97590 | -118.90749 | 26096 ft | 422 kts | 321° |
| 2026-04-24 19:28 | 35.00148 | -118.92515 | 26395 ft | 424 kts | 321° |
| 2026-04-24 19:28 | 35.02722 | -118.94297 | 26608 ft | 427 kts | 321° |
| 2026-04-24 19:28 | 35.05310 | -118.96089 | 26837 ft | 428 kts | 321° |
| 2026-04-24 19:28 | 35.07904 | -118.97883 | 27126 ft | 429 kts | 321° |
| 2026-04-24 19:29 | 35.13114 | -119.01485 | 27601 ft | 432 kts | 321° |
| 2026-04-24 19:29 | 35.15733 | -119.03295 | 27827 ft | 433 kts | 321° |
| 2026-04-24 19:29 | 35.18359 | -119.05114 | 28046 ft | 434 kts | 321° |
| 2026-04-24 19:30 | 35.20993 | -119.06939 | 28304 ft | 435 kts | 321° |
| 2026-04-24 19:30 | 35.23626 | -119.08767 | 28584 ft | 435 kts | 320° |
| 2026-04-24 19:30 | 35.26256 | -119.10593 | 28873 ft | 434 kts | 320° |
| 2026-04-24 19:30 | 35.28879 | -119.12418 | 29164 ft | 433 kts | 320° |
| 2026-04-24 19:31 | 35.31496 | -119.14242 | 29468 ft | 432 kts | 320° |
| 2026-04-24 19:31 | 35.34106 | -119.16064 | 29768 ft | 432 kts | 320° |
| 2026-04-24 19:31 | 35.36712 | -119.17882 | 30062 ft | 431 kts | 320° |
| 2026-04-24 19:31 | 35.39315 | -119.19696 | 30336 ft | 430 kts | 320° |
| 2026-04-24 19:32 | 35.41914 | -119.21508 | 30578 ft | 429 kts | 320° |
| 2026-04-24 19:32 | 35.44597 | -119.23178 | 30821 ft | 439 kts | 327° |
| 2026-04-24 19:32 | 35.47538 | -119.24351 | 31057 ft | 451 kts | 335° |
| 2026-04-24 19:32 | 35.50585 | -119.25254 | 31285 ft | 451 kts | 335° |
| 2026-04-24 19:33 | 35.53634 | -119.26158 | 31530 ft | 450 kts | 335° |
| 2026-04-24 19:33 | 35.56673 | -119.27065 | 31772 ft | 450 kts | 335° |
| 2026-04-24 19:33 | 35.57658 | -119.27361 | 31902 ft | 449 kts | 335° |
| 2026-04-24 19:33 | 35.62744 | -119.28888 | 32300 ft | 449 kts | 336° |
| 2026-04-24 19:34 | 35.65775 | -119.29799 | 32537 ft | 448 kts | 336° |
| 2026-04-24 19:34 | 35.67783 | -119.30401 | 32691 ft | 448 kts | 336° |
| 2026-04-24 19:34 | 35.71834 | -119.31614 | 32997 ft | 448 kts | 336° |
| 2026-04-24 19:34 | 35.74861 | -119.32520 | 33225 ft | 448 kts | 336° |
| 2026-04-24 19:35 | 35.77886 | -119.33425 | 33468 ft | 447 kts | 336° |
| 2026-04-24 19:35 | 35.80911 | -119.34332 | 33697 ft | 448 kts | 337° |
| 2026-04-24 19:35 | 35.83938 | -119.35244 | 33899 ft | 448 kts | 337° |
| 2026-04-24 19:35 | 35.86965 | -119.36161 | 34105 ft | 448 kts | 337° |
| 2026-04-24 19:36 | 35.89991 | -119.37077 | 34296 ft | 448 kts | 337° |
| 2026-04-24 19:36 | 35.93016 | -119.37989 | 34493 ft | 447 kts | 337° |
| 2026-04-24 19:36 | 35.95999 | -119.38885 | 34693 ft | 447 kts | 337° |
| 2026-04-24 19:36 | 35.99057 | -119.39807 | 34916 ft | 446 kts | 338° |
| 2026-04-24 19:37 | 36.02076 | -119.40719 | 35073 ft | 447 kts | 338° |
| 2026-04-24 19:37 | 36.05095 | -119.41632 | 35245 ft | 447 kts | 338° |
| 2026-04-24 19:37 | 36.08111 | -119.42547 | 35416 ft | 446 kts | 338° |
| 2026-04-24 19:37 | 36.11122 | -119.43459 | 35587 ft | 446 kts | 338° |
| 2026-04-24 19:38 | 36.14095 | -119.44356 | 35750 ft | 445 kts | 338° |
| 2026-04-24 19:38 | 36.17143 | -119.45279 | 35928 ft | 445 kts | 338° |
| 2026-04-24 19:38 | 36.20152 | -119.46195 | 36009 ft | 446 kts | 339° |
| 2026-04-24 19:39 | 36.26198 | -119.48039 | 36011 ft | 448 kts | 339° |
| 2026-04-24 19:39 | 36.32205 | -119.49866 | 36007 ft | 448 kts | 339° |
| 2026-04-24 19:40 | 36.38249 | -119.51713 | 36037 ft | 447 kts | 339° |
| 2026-04-24 19:40 | 36.44310 | -119.53571 | 36004 ft | 449 kts | 339° |
| 2026-04-24 19:41 | 36.50378 | -119.55422 | 35999 ft | 449 kts | 339° |
| 2026-04-24 19:41 | 36.56441 | -119.57280 | 36003 ft | 449 kts | 339° |
| 2026-04-24 19:42 | 36.62506 | -119.59142 | 36022 ft | 449 kts | 340° |
| 2026-04-24 19:42 | 36.67586 | -119.60703 | 36019 ft | 449 kts | 340° |
| 2026-04-24 19:43 | 36.74628 | -119.62865 | 36016 ft | 448 kts | 340° |
| 2026-04-24 19:43 | 36.80687 | -119.64732 | 36014 ft | 448 kts | 340° |
| 2026-04-24 19:44 | 36.86746 | -119.66608 | 36009 ft | 449 kts | 340° |
| 2026-04-24 19:44 | 36.92811 | -119.68481 | 36008 ft | 449 kts | 340° |
| 2026-04-24 19:45 | 36.98875 | -119.70362 | 36029 ft | 449 kts | 340° |
| 2026-04-24 19:45 | 37.04943 | -119.72245 | 36015 ft | 449 kts | 340° |
| 2026-04-24 19:46 | 37.11009 | -119.74133 | 36004 ft | 449 kts | 340° |
| 2026-04-24 19:46 | 37.15065 | -119.75403 | 36003 ft | 449 kts | 340° |
| 2026-04-24 19:47 | 37.28851 | -119.79710 | 36010 ft | 450 kts | 340° |
| 2026-04-24 19:48 | 37.34931 | -119.81611 | 36009 ft | 450 kts | 340° |
| 2026-04-24 19:48 | 37.44052 | -119.84472 | 36017 ft | 451 kts | 341° |
| 2026-04-24 19:49 | 37.56216 | -119.88296 | 36033 ft | 451 kts | 341° |
| 2026-04-24 19:50 | 37.68381 | -119.92139 | 36010 ft | 450 kts | 341° |
| 2026-04-24 19:51 | 37.77459 | -119.95016 | 36021 ft | 451 kts | 341° |
| 2026-04-24 19:52 | 37.86622 | -119.97914 | 36010 ft | 450 kts | 341° |
| 2026-04-24 19:52 | 37.92699 | -119.99858 | 36003 ft | 450 kts | 341° |
| 2026-04-24 19:53 | 37.98733 | -120.01775 | 36008 ft | 450 kts | 342° |
| 2026-04-24 19:54 | 38.07848 | -120.04687 | 35997 ft | 450 kts | 341° |
| 2026-04-24 19:54 | 38.13967 | -120.06655 | 36008 ft | 451 kts | 342° |
| 2026-04-24 19:55 | 38.17993 | -120.07948 | 36006 ft | 451 kts | 342° |
| 2026-04-24 19:55 | 38.26209 | -120.09923 | 36002 ft | 455 kts | 352° |
| 2026-04-24 19:56 | 38.32533 | -120.10486 | 36013 ft | 455 kts | 352° |
| 2026-04-24 19:56 | 38.38850 | -120.11059 | 36010 ft | 455 kts | 352° |
| 2026-04-24 19:57 | 38.44130 | -120.11541 | 35998 ft | 454 kts | 352° |
| 2026-04-24 19:57 | 38.51456 | -120.12205 | 36008 ft | 454 kts | 352° |
| 2026-04-24 19:58 | 38.57744 | -120.12782 | 36006 ft | 453 kts | 352° |
| 2026-04-24 19:58 | 38.64026 | -120.13354 | 35996 ft | 452 kts | 352° |
| 2026-04-24 19:59 | 38.70298 | -120.13935 | 35991 ft | 452 kts | 352° |
| 2026-04-24 19:59 | 38.76568 | -120.14514 | 35989 ft | 451 kts | 352° |
| 2026-04-24 20:00 | 38.82833 | -120.15080 | 35985 ft | 451 kts | 352° |
| 2026-04-24 20:00 | 38.89095 | -120.15655 | 35984 ft | 451 kts | 352° |
| 2026-04-24 20:01 | 38.95357 | -120.16238 | 35989 ft | 451 kts | 352° |
| 2026-04-24 20:01 | 39.01618 | -120.16823 | 35983 ft | 451 kts | 352° |
| 2026-04-24 20:02 | 39.06861 | -120.17311 | 36001 ft | 451 kts | 353° |
| 2026-04-24 20:02 | 39.14136 | -120.17979 | 36012 ft | 451 kts | 353° |
| 2026-04-24 20:03 | 39.20401 | -120.18561 | 36020 ft | 451 kts | 353° |
| 2026-04-24 20:03 | 39.26666 | -120.19144 | 36023 ft | 451 kts | 353° |
| 2026-04-24 20:04 | 39.31916 | -120.19631 | 36030 ft | 451 kts | 353° |
| 2026-04-24 20:04 | 39.38177 | -120.20218 | 35951 ft | 451 kts | 353° |
| 2026-04-24 20:05 | 39.44435 | -120.20806 | 35950 ft | 451 kts | 353° |
| 2026-04-24 20:05 | 39.50695 | -120.21397 | 35959 ft | 451 kts | 352° |
| 2026-04-24 20:06 | 39.56946 | -120.21985 | 35958 ft | 450 kts | 352° |
| 2026-04-24 20:06 | 39.63186 | -120.22566 | 35945 ft | 449 kts | 352° |
| 2026-04-24 20:07 | 39.68365 | -120.23048 | 35954 ft | 449 kts | 352° |
| 2026-04-24 20:07 | 39.75642 | -120.23738 | 35946 ft | 448 kts | 352° |
| 2026-04-24 20:08 | 39.81857 | -120.24327 | 35939 ft | 448 kts | 352° |
| 2026-04-24 20:08 | 39.88067 | -120.24915 | 35948 ft | 447 kts | 352° |
| 2026-04-24 20:09 | 39.94277 | -120.25505 | 35942 ft | 447 kts | 352° |
| 2026-04-24 20:09 | 40.00484 | -120.26101 | 35935 ft | 447 kts | 352° |
| 2026-04-24 20:10 | 40.06686 | -120.26697 | 35939 ft | 447 kts | 352° |
| 2026-04-24 20:10 | 40.12889 | -120.27288 | 35939 ft | 447 kts | 352° |
| 2026-04-24 20:11 | 40.19090 | -120.27877 | 35942 ft | 447 kts | 352° |
| 2026-04-24 20:11 | 40.25255 | -120.28470 | 35959 ft | 447 kts | 352° |
| 2026-04-24 20:12 | 40.31459 | -120.29062 | 35966 ft | 447 kts | 352° |
| 2026-04-24 20:12 | 40.37656 | -120.29666 | 35964 ft | 446 kts | 352° |
| 2026-04-24 20:13 | 40.43849 | -120.30266 | 35976 ft | 446 kts | 352° |
| 2026-04-24 20:13 | 40.50030 | -120.30859 | 35967 ft | 445 kts | 352° |
| 2026-04-24 20:14 | 40.56206 | -120.31450 | 35960 ft | 445 kts | 352° |
| 2026-04-24 20:14 | 40.62377 | -120.32051 | 35955 ft | 444 kts | 352° |
| 2026-04-24 20:15 | 40.68548 | -120.32651 | 35950 ft | 445 kts | 352° |
| 2026-04-24 20:15 | 40.74717 | -120.33238 | 35948 ft | 444 kts | 352° |
| 2026-04-24 20:16 | 40.80881 | -120.33831 | 35964 ft | 444 kts | 352° |
| 2026-04-24 20:16 | 40.87049 | -120.34438 | 35964 ft | 444 kts | 352° |
| 2026-04-24 20:17 | 40.93211 | -120.35054 | 35960 ft | 444 kts | 352° |
| 2026-04-24 20:17 | 41.02452 | -120.35964 | 35967 ft | 444 kts | 352° |
| 2026-04-24 20:18 | 41.08617 | -120.36557 | 35978 ft | 444 kts | 352° |
| 2026-04-24 20:18 | 41.14779 | -120.37163 | 35977 ft | 444 kts | 352° |
| 2026-04-24 20:19 | 41.20936 | -120.37786 | 35993 ft | 443 kts | 352° |
| 2026-04-24 20:19 | 41.27087 | -120.38392 | 35997 ft | 443 kts | 352° |
| 2026-04-24 20:20 | 41.33230 | -120.38993 | 36009 ft | 443 kts | 352° |
| 2026-04-24 20:20 | 41.39371 | -120.39602 | 36016 ft | 442 kts | 352° |
| 2026-04-24 20:21 | 41.45506 | -120.40216 | 36032 ft | 442 kts | 352° |
| 2026-04-24 20:21 | 41.51634 | -120.40825 | 36002 ft | 441 kts | 352° |
| 2026-04-24 20:22 | 41.57753 | -120.41438 | 36015 ft | 440 kts | 352° |
| 2026-04-24 20:22 | 41.63860 | -120.42052 | 36007 ft | 440 kts | 352° |
| 2026-04-24 20:23 | 41.68932 | -120.42566 | 36011 ft | 440 kts | 352° |
| 2026-04-24 20:23 | 41.69962 | -120.42670 | 36011 ft | 440 kts | 352° |